sensor_id;sensor_type;location;lat;lon;timestamp;temperature;humidity
16974;DHT22;8603;46.944;7.412;2023-05-07T00:01:46;12.20;99.90
16974;DHT22;8603;46.944;7.412;2023-05-07T00:04:12;12.20;99.90
16974;DHT22;8603;46.944;7.412;2023-05-07T00:06:39;12.10;99.90
16974;DHT22;8603;46.944;7.412;2023-05-07T00:09:05;12.10;99.90
16974;DHT22;8603;46.944;7.412;2023-05-07T00:11:31;12.10;99.90
16974;DHT22;8603;46.944;7.412;2023-05-07T00:13:57;12.10;99.90
16974;DHT22;8603;46.944;7.412;2023-05-07T00:16:23;12.00;99.90
16974;DHT22;8603;46.944;7.412;2023-05-07T00:18:49;12.00;99.90
16974;DHT22;8603;46.944;7.412;2023-05-07T00:21:14;11.90;99.90
16974;DHT22;8603;46.944;7.412;2023-05-07T00:23:40;11.90;99.90
16974;DHT22;8603;46.944;7.412;2023-05-07T00:26:06;11.80;99.90
16974;DHT22;8603;46.944;7.412;2023-05-07T00:28:31;11.80;99.90
16974;DHT22;8603;46.944;7.412;2023-05-07T00:30:57;11.70;99.90
16974;DHT22;8603;46.944;7.412;2023-05-07T00:33:23;11.70;99.90
16974;DHT22;8603;46.944;7.412;2023-05-07T00:35:49;11.70;99.90
16974;DHT22;8603;46.944;7.412;2023-05-07T00:38:15;11.70;99.90
16974;DHT22;8603;46.944;7.412;2023-05-07T00:40:41;11.70;99.90
16974;DHT22;8603;46.944;7.412;2023-05-07T00:43:07;11.60;99.90
16974;DHT22;8603;46.944;7.412;2023-05-07T00:45:34;11.60;99.90
16974;DHT22;8603;46.944;7.412;2023-05-07T00:48:02;11.60;99.90
16974;DHT22;8603;46.944;7.412;2023-05-07T00:50:29;11.60;99.90
16974;DHT22;8603;46.944;7.412;2023-05-07T00:52:55;11.40;99.90
16974;DHT22;8603;46.944;7.412;2023-05-07T00:55:23;11.50;99.90
16974;DHT22;8603;46.944;7.412;2023-05-07T00:57:52;11.50;99.90
16974;DHT22;8603;46.944;7.412;2023-05-07T01:00:17;11.50;99.90
16974;DHT22;8603;46.944;7.412;2023-05-07T01:02:43;11.50;99.90
16974;DHT22;8603;46.944;7.412;2023-05-07T01:05:11;11.50;99.90
16974;DHT22;8603;46.944;7.412;2023-05-07T01:07:41;11.50;99.90
16974;DHT22;8603;46.944;7.412;2023-05-07T01:10:09;11.60;99.90
16974;DHT22;8603;46.944;7.412;2023-05-07T01:12:36;11.50;99.90
16974;DHT22;8603;46.944;7.412;2023-05-07T01:15:03;11.50;99.90
16974;DHT22;8603;46.944;7.412;2023-05-07T01:17:37;11.40;99.90
16974;DHT22;8603;46.944;7.412;2023-05-07T01:20:04;11.50;99.90
16974;DHT22;8603;46.944;7.412;2023-05-07T01:22:34;11.40;99.90
16974;DHT22;8603;46.944;7.412;2023-05-07T01:25:05;11.40;99.90
16974;DHT22;8603;46.944;7.412;2023-05-07T01:27:31;11.40;99.90
16974;DHT22;8603;46.944;7.412;2023-05-07T01:29:59;11.40;99.90
16974;DHT22;8603;46.944;7.412;2023-05-07T01:32:50;11.30;99.90
16974;DHT22;8603;46.944;7.412;2023-05-07T01:35:22;11.20;99.90
16974;DHT22;8603;46.944;7.412;2023-05-07T01:37:49;11.20;99.90
16974;DHT22;8603;46.944;7.412;2023-05-07T01:40:16;11.20;99.90
16974;DHT22;8603;46.944;7.412;2023-05-07T01:42:43;11.20;99.90
16974;DHT22;8603;46.944;7.412;2023-05-07T01:45:09;11.10;99.90
16974;DHT22;8603;46.944;7.412;2023-05-07T01:47:36;11.20;99.90
16974;DHT22;8603;46.944;7.412;2023-05-07T01:50:04;11.10;99.90
16974;DHT22;8603;46.944;7.412;2023-05-07T01:52:31;11.10;99.90
16974;DHT22;8603;46.944;7.412;2023-05-07T01:54:56;11.30;99.90
16974;DHT22;8603;46.944;7.412;2023-05-07T01:57:22;11.10;99.90
16974;DHT22;8603;46.944;7.412;2023-05-07T01:59:48;11.10;99.90
16974;DHT22;8603;46.944;7.412;2023-05-07T02:02:14;11.00;99.90
16974;DHT22;8603;46.944;7.412;2023-05-07T02:04:39;11.00;99.90
16974;DHT22;8603;46.944;7.412;2023-05-07T02:07:05;11.00;99.90
16974;DHT22;8603;46.944;7.412;2023-05-07T02:09:31;10.90;99.90
16974;DHT22;8603;46.944;7.412;2023-05-07T02:11:57;11.00;99.90
16974;DHT22;8603;46.944;7.412;2023-05-07T02:14:23;10.90;99.90
16974;DHT22;8603;46.944;7.412;2023-05-07T02:16:49;10.90;99.90
16974;DHT22;8603;46.944;7.412;2023-05-07T02:19:15;10.90;99.90
16974;DHT22;8603;46.944;7.412;2023-05-07T02:21:41;10.80;99.90
16974;DHT22;8603;46.944;7.412;2023-05-07T02:24:07;10.80;99.90
16974;DHT22;8603;46.944;7.412;2023-05-07T02:26:33;10.80;99.90
16974;DHT22;8603;46.944;7.412;2023-05-07T02:28:59;10.80;99.90
16974;DHT22;8603;46.944;7.412;2023-05-07T02:31:26;10.80;99.90
16974;DHT22;8603;46.944;7.412;2023-05-07T02:33:51;10.70;99.90
16974;DHT22;8603;46.944;7.412;2023-05-07T02:36:17;10.70;99.90
16974;DHT22;8603;46.944;7.412;2023-05-07T02:38:43;10.70;99.90
16974;DHT22;8603;46.944;7.412;2023-05-07T02:41:08;10.70;99.90
16974;DHT22;8603;46.944;7.412;2023-05-07T02:43:34;10.60;99.90
16974;DHT22;8603;46.944;7.412;2023-05-07T02:46:07;10.60;99.90
16974;DHT22;8603;46.944;7.412;2023-05-07T02:48:33;10.60;99.90
16974;DHT22;8603;46.944;7.412;2023-05-07T02:51:00;10.50;99.90
16974;DHT22;8603;46.944;7.412;2023-05-07T02:53:26;10.50;99.90
16974;DHT22;8603;46.944;7.412;2023-05-07T02:55:53;10.50;99.90
16974;DHT22;8603;46.944;7.412;2023-05-07T02:58:19;10.60;99.90
16974;DHT22;8603;46.944;7.412;2023-05-07T03:00:45;10.50;99.90
16974;DHT22;8603;46.944;7.412;2023-05-07T03:03:11;10.60;99.90
16974;DHT22;8603;46.944;7.412;2023-05-07T03:05:37;10.40;99.90
16974;DHT22;8603;46.944;7.412;2023-05-07T03:08:03;10.50;99.90
16974;DHT22;8603;46.944;7.412;2023-05-07T03:10:29;10.50;99.90
16974;DHT22;8603;46.944;7.412;2023-05-07T03:12:55;10.50;99.90
16974;DHT22;8603;46.944;7.412;2023-05-07T03:15:21;10.50;99.90
16974;DHT22;8603;46.944;7.412;2023-05-07T03:17:47;10.40;99.90
16974;DHT22;8603;46.944;7.412;2023-05-07T03:20:13;10.30;99.90
16974;DHT22;8603;46.944;7.412;2023-05-07T03:22:39;10.30;99.90
16974;DHT22;8603;46.944;7.412;2023-05-07T03:25:06;10.40;99.90
16974;DHT22;8603;46.944;7.412;2023-05-07T03:27:31;10.30;99.90
16974;DHT22;8603;46.944;7.412;2023-05-07T03:29:57;10.10;99.90
16974;DHT22;8603;46.944;7.412;2023-05-07T03:32:23;10.20;99.90
16974;DHT22;8603;46.944;7.412;2023-05-07T03:34:49;10.20;99.90
16974;DHT22;8603;46.944;7.412;2023-05-07T03:37:15;10.20;99.90
16974;DHT22;8603;46.944;7.412;2023-05-07T03:39:40;10.20;99.90
16974;DHT22;8603;46.944;7.412;2023-05-07T03:42:06;10.20;99.90
16974;DHT22;8603;46.944;7.412;2023-05-07T03:44:32;10.20;99.90
16974;DHT22;8603;46.944;7.412;2023-05-07T03:46:57;10.20;99.90
16974;DHT22;8603;46.944;7.412;2023-05-07T03:49:23;10.10;99.90
16974;DHT22;8603;46.944;7.412;2023-05-07T03:51:49;10.20;99.90
16974;DHT22;8603;46.944;7.412;2023-05-07T03:54:14;10.10;99.90
16974;DHT22;8603;46.944;7.412;2023-05-07T03:56:40;10.10;99.90
16974;DHT22;8603;46.944;7.412;2023-05-07T03:59:06;10.20;99.90
16974;DHT22;8603;46.944;7.412;2023-05-07T04:01:31;10.20;99.90
16974;DHT22;8603;46.944;7.412;2023-05-07T04:03:57;10.20;99.90
16974;DHT22;8603;46.944;7.412;2023-05-07T04:06:22;10.20;99.90
16974;DHT22;8603;46.944;7.412;2023-05-07T04:08:48;10.30;99.90
16974;DHT22;8603;46.944;7.412;2023-05-07T04:11:14;10.20;99.90
16974;DHT22;8603;46.944;7.412;2023-05-07T04:13:40;10.30;99.90
16974;DHT22;8603;46.944;7.412;2023-05-07T04:16:06;10.30;99.90
16974;DHT22;8603;46.944;7.412;2023-05-07T04:18:35;10.30;99.90
16974;DHT22;8603;46.944;7.412;2023-05-07T04:21:01;10.30;99.90
16974;DHT22;8603;46.944;7.412;2023-05-07T04:23:27;10.40;99.90
16974;DHT22;8603;46.944;7.412;2023-05-07T04:25:53;10.40;99.90
16974;DHT22;8603;46.944;7.412;2023-05-07T04:28:22;10.50;99.90
16974;DHT22;8603;46.944;7.412;2023-05-07T04:30:47;10.60;99.90
16974;DHT22;8603;46.944;7.412;2023-05-07T04:33:14;10.70;99.90
16974;DHT22;8603;46.944;7.412;2023-05-07T04:35:42;10.60;99.90
16974;DHT22;8603;46.944;7.412;2023-05-07T04:38:07;10.70;99.90
16974;DHT22;8603;46.944;7.412;2023-05-07T04:40:35;10.80;99.90
16974;DHT22;8603;46.944;7.412;2023-05-07T04:43:01;10.90;99.90
16974;DHT22;8603;46.944;7.412;2023-05-07T04:45:26;10.90;99.90
16974;DHT22;8603;46.944;7.412;2023-05-07T04:47:52;10.90;99.90
16974;DHT22;8603;46.944;7.412;2023-05-07T04:50:17;11.00;99.90
16974;DHT22;8603;46.944;7.412;2023-05-07T04:52:44;11.10;99.90
16974;DHT22;8603;46.944;7.412;2023-05-07T04:55:10;11.10;99.90
16974;DHT22;8603;46.944;7.412;2023-05-07T04:57:36;11.10;99.90
16974;DHT22;8603;46.944;7.412;2023-05-07T05:00:04;11.10;99.90
16974;DHT22;8603;46.944;7.412;2023-05-07T05:02:29;11.10;99.90
16974;DHT22;8603;46.944;7.412;2023-05-07T05:04:56;11.30;99.90
16974;DHT22;8603;46.944;7.412;2023-05-07T05:07:22;11.20;99.90
16974;DHT22;8603;46.944;7.412;2023-05-07T05:09:48;11.40;99.90
16974;DHT22;8603;46.944;7.412;2023-05-07T05:12:13;11.40;99.90
16974;DHT22;8603;46.944;7.412;2023-05-07T05:14:39;11.60;99.90
16974;DHT22;8603;46.944;7.412;2023-05-07T05:17:04;11.80;99.90
16974;DHT22;8603;46.944;7.412;2023-05-07T05:19:30;12.00;99.90
16974;DHT22;8603;46.944;7.412;2023-05-07T05:21:55;12.30;99.90
16974;DHT22;8603;46.944;7.412;2023-05-07T05:24:21;12.50;99.90
16974;DHT22;8603;46.944;7.412;2023-05-07T05:26:47;12.90;99.90
16974;DHT22;8603;46.944;7.412;2023-05-07T05:29:13;13.70;99.90
16974;DHT22;8603;46.944;7.412;2023-05-07T05:31:38;14.60;99.90
16974;DHT22;8603;46.944;7.412;2023-05-07T05:34:04;15.60;99.90
16974;DHT22;8603;46.944;7.412;2023-05-07T05:36:30;16.60;99.90
16974;DHT22;8603;46.944;7.412;2023-05-07T05:38:56;17.20;99.90
16974;DHT22;8603;46.944;7.412;2023-05-07T05:41:21;17.70;99.90
16974;DHT22;8603;46.944;7.412;2023-05-07T05:43:47;18.00;99.90
16974;DHT22;8603;46.944;7.412;2023-05-07T05:46:12;18.00;99.90
16974;DHT22;8603;46.944;7.412;2023-05-07T05:48:38;18.00;99.90
16974;DHT22;8603;46.944;7.412;2023-05-07T05:51:04;18.20;99.90
16974;DHT22;8603;46.944;7.412;2023-05-07T05:53:30;18.40;99.90
16974;DHT22;8603;46.944;7.412;2023-05-07T05:55:55;18.60;99.90
16974;DHT22;8603;46.944;7.412;2023-05-07T05:58:21;18.40;99.90
16974;DHT22;8603;46.944;7.412;2023-05-07T06:00:47;18.10;99.90
16974;DHT22;8603;46.944;7.412;2023-05-07T06:03:14;17.90;99.90
16974;DHT22;8603;46.944;7.412;2023-05-07T06:05:39;17.60;99.90
16974;DHT22;8603;46.944;7.412;2023-05-07T06:08:05;17.40;99.90
16974;DHT22;8603;46.944;7.412;2023-05-07T06:10:30;17.30;99.90
16974;DHT22;8603;46.944;7.412;2023-05-07T06:12:56;17.10;99.90
16974;DHT22;8603;46.944;7.412;2023-05-07T06:15:23;17.00;99.90
16974;DHT22;8603;46.944;7.412;2023-05-07T06:17:49;16.80;99.90
16974;DHT22;8603;46.944;7.412;2023-05-07T06:20:15;16.70;99.90
16974;DHT22;8603;46.944;7.412;2023-05-07T06:22:40;16.60;99.90
16974;DHT22;8603;46.944;7.412;2023-05-07T06:25:07;16.60;99.90
16974;DHT22;8603;46.944;7.412;2023-05-07T06:27:32;16.50;99.90
16974;DHT22;8603;46.944;7.412;2023-05-07T06:29:58;16.40;99.90
16974;DHT22;8603;46.944;7.412;2023-05-07T06:32:24;16.50;99.90
16974;DHT22;8603;46.944;7.412;2023-05-07T06:34:50;16.50;99.90
16974;DHT22;8603;46.944;7.412;2023-05-07T06:37:15;16.50;99.90
16974;DHT22;8603;46.944;7.412;2023-05-07T06:39:41;16.60;99.90
16974;DHT22;8603;46.944;7.412;2023-05-07T06:42:07;16.70;99.90
16974;DHT22;8603;46.944;7.412;2023-05-07T06:44:33;16.80;99.90
16974;DHT22;8603;46.944;7.412;2023-05-07T06:46:59;17.10;99.90
16974;DHT22;8603;46.944;7.412;2023-05-07T06:49:27;17.50;99.90
16974;DHT22;8603;46.944;7.412;2023-05-07T06:51:53;18.60;99.90
16974;DHT22;8603;46.944;7.412;2023-05-07T06:54:20;20.10;99.90
16974;DHT22;8603;46.944;7.412;2023-05-07T06:56:47;21.60;99.90
16974;DHT22;8603;46.944;7.412;2023-05-07T06:59:15;23.00;99.90
16974;DHT22;8603;46.944;7.412;2023-05-07T07:01:41;23.60;99.90
16974;DHT22;8603;46.944;7.412;2023-05-07T07:04:07;23.70;99.90
16974;DHT22;8603;46.944;7.412;2023-05-07T07:06:35;23.30;99.90
16974;DHT22;8603;46.944;7.412;2023-05-07T07:09:01;23.60;99.90
16974;DHT22;8603;46.944;7.412;2023-05-07T07:11:26;23.90;99.90
16974;DHT22;8603;46.944;7.412;2023-05-07T07:13:52;24.00;99.90
16974;DHT22;8603;46.944;7.412;2023-05-07T07:16:20;24.40;99.90
16974;DHT22;8603;46.944;7.412;2023-05-07T07:18:46;24.40;99.90
16974;DHT22;8603;46.944;7.412;2023-05-07T07:21:11;24.30;99.90
16974;DHT22;8603;46.944;7.412;2023-05-07T07:23:37;24.40;99.90
16974;DHT22;8603;46.944;7.412;2023-05-07T07:26:03;24.10;99.90
16974;DHT22;8603;46.944;7.412;2023-05-07T07:28:33;23.60;99.90
16974;DHT22;8603;46.944;7.412;2023-05-07T07:31:01;22.90;99.90
16974;DHT22;8603;46.944;7.412;2023-05-07T07:33:27;22.50;99.90
16974;DHT22;8603;46.944;7.412;2023-05-07T07:35:53;22.00;99.90
16974;DHT22;8603;46.944;7.412;2023-05-07T07:38:20;21.50;99.90
16974;DHT22;8603;46.944;7.412;2023-05-07T07:40:47;21.00;99.90
16974;DHT22;8603;46.944;7.412;2023-05-07T07:43:15;20.60;99.90
16974;DHT22;8603;46.944;7.412;2023-05-07T07:45:41;20.30;99.90
16974;DHT22;8603;46.944;7.412;2023-05-07T07:48:07;20.00;99.90
16974;DHT22;8603;46.944;7.412;2023-05-07T07:50:33;19.60;99.90
16974;DHT22;8603;46.944;7.412;2023-05-07T07:52:59;19.40;99.90
16974;DHT22;8603;46.944;7.412;2023-05-07T07:55:25;19.10;99.90
16974;DHT22;8603;46.944;7.412;2023-05-07T07:57:52;19.00;99.90
16974;DHT22;8603;46.944;7.412;2023-05-07T08:00:18;18.80;99.90
16974;DHT22;8603;46.944;7.412;2023-05-07T08:02:43;18.60;99.90
16974;DHT22;8603;46.944;7.412;2023-05-07T08:05:09;18.40;99.90
16974;DHT22;8603;46.944;7.412;2023-05-07T08:07:35;18.20;99.90
16974;DHT22;8603;46.944;7.412;2023-05-07T08:10:01;18.10;99.90
16974;DHT22;8603;46.944;7.412;2023-05-07T08:12:27;18.20;99.90
16974;DHT22;8603;46.944;7.412;2023-05-07T08:14:53;18.30;99.90
16974;DHT22;8603;46.944;7.412;2023-05-07T08:17:19;18.40;99.90
16974;DHT22;8603;46.944;7.412;2023-05-07T08:19:47;19.20;99.90
16974;DHT22;8603;46.944;7.412;2023-05-07T08:22:13;20.90;99.90
16974;DHT22;8603;46.944;7.412;2023-05-07T08:24:40;22.50;99.90
16974;DHT22;8603;46.944;7.412;2023-05-07T08:27:12;23.90;99.90
16974;DHT22;8603;46.944;7.412;2023-05-07T08:29:38;25.60;99.90
16974;DHT22;8603;46.944;7.412;2023-05-07T08:32:12;27.40;99.90
16974;DHT22;8603;46.944;7.412;2023-05-07T08:34:38;28.80;99.90
16974;DHT22;8603;46.944;7.412;2023-05-07T08:37:04;28.70;99.90
16974;DHT22;8603;46.944;7.412;2023-05-07T08:39:30;28.60;99.90
16974;DHT22;8603;46.944;7.412;2023-05-07T08:41:55;28.30;99.90
16974;DHT22;8603;46.944;7.412;2023-05-07T08:44:23;29.00;99.90
16974;DHT22;8603;46.944;7.412;2023-05-07T08:46:52;30.40;99.60
16974;DHT22;8603;46.944;7.412;2023-05-07T08:49:20;31.80;97.00
16974;DHT22;8603;46.944;7.412;2023-05-07T08:51:46;32.00;94.50
16974;DHT22;8603;46.944;7.412;2023-05-07T08:54:12;32.10;93.80
16974;DHT22;8603;46.944;7.412;2023-05-07T08:56:41;30.90;93.70
16974;DHT22;8603;46.944;7.412;2023-05-07T08:59:07;29.50;94.50
16974;DHT22;8603;46.944;7.412;2023-05-07T09:01:32;29.10;95.40
16974;DHT22;8603;46.944;7.412;2023-05-07T09:04:00;29.60;95.10
16974;DHT22;8603;46.944;7.412;2023-05-07T09:06:26;30.10;94.40
16974;DHT22;8603;46.944;7.412;2023-05-07T09:08:53;29.50;94.30
16974;DHT22;8603;46.944;7.412;2023-05-07T09:11:20;29.60;94.20
16974;DHT22;8603;46.944;7.412;2023-05-07T09:13:47;29.70;93.90
16974;DHT22;8603;46.944;7.412;2023-05-07T09:16:13;29.90;93.80
16974;DHT22;8603;46.944;7.412;2023-05-07T09:18:43;30.70;93.60
16974;DHT22;8603;46.944;7.412;2023-05-07T09:21:16;31.80;93.20
16974;DHT22;8603;46.944;7.412;2023-05-07T09:23:42;32.10;91.50
16974;DHT22;8603;46.944;7.412;2023-05-07T09:26:07;32.50;90.60
16974;DHT22;8603;46.944;7.412;2023-05-07T09:28:40;32.90;90.10
16974;DHT22;8603;46.944;7.412;2023-05-07T09:31:10;33.10;89.30
16974;DHT22;8603;46.944;7.412;2023-05-07T09:33:36;33.30;87.80
16974;DHT22;8603;46.944;7.412;2023-05-07T09:36:06;33.20;88.60
16974;DHT22;8603;46.944;7.412;2023-05-07T09:38:33;33.20;85.20
16974;DHT22;8603;46.944;7.412;2023-05-07T09:41:07;32.60;86.70
16974;DHT22;8603;46.944;7.412;2023-05-07T09:43:37;31.50;86.70
16974;DHT22;8603;46.944;7.412;2023-05-07T09:46:11;30.90;89.20
16974;DHT22;8603;46.944;7.412;2023-05-07T09:48:39;30.30;91.50
16974;DHT22;8603;46.944;7.412;2023-05-07T09:53:43;29.80;90.40
16974;DHT22;8603;46.944;7.412;2023-05-07T09:56:09;29.60;90.30
16974;DHT22;8603;46.944;7.412;2023-05-07T09:58:37;29.50;90.60
16974;DHT22;8603;46.944;7.412;2023-05-07T10:01:04;29.20;91.30
16974;DHT22;8603;46.944;7.412;2023-05-07T10:03:31;29.10;90.90
16974;DHT22;8603;46.944;7.412;2023-05-07T10:05:58;29.00;90.40
16974;DHT22;8603;46.944;7.412;2023-05-07T10:08:24;28.80;90.60
16974;DHT22;8603;46.944;7.412;2023-05-07T10:10:50;28.80;91.30
16974;DHT22;8603;46.944;7.412;2023-05-07T10:13:17;28.90;91.90
16974;DHT22;8603;46.944;7.412;2023-05-07T10:15:44;28.80;91.70
16974;DHT22;8603;46.944;7.412;2023-05-07T10:18:12;27.90;92.10
16974;DHT22;8603;46.944;7.412;2023-05-07T10:20:38;27.30;92.50
16974;DHT22;8603;46.944;7.412;2023-05-07T10:23:05;27.10;92.70
16974;DHT22;8603;46.944;7.412;2023-05-07T10:25:33;27.10;93.30
16974;DHT22;8603;46.944;7.412;2023-05-07T10:28:04;27.10;93.20
16974;DHT22;8603;46.944;7.412;2023-05-07T10:33:24;26.80;93.30
16974;DHT22;8603;46.944;7.412;2023-05-07T10:35:57;26.70;93.40
16974;DHT22;8603;46.944;7.412;2023-05-07T10:38:24;26.60;93.80
16974;DHT22;8603;46.944;7.412;2023-05-07T10:40:51;26.70;93.60
16974;DHT22;8603;46.944;7.412;2023-05-07T10:43:16;26.80;93.40
16974;DHT22;8603;46.944;7.412;2023-05-07T10:45:42;26.90;93.00
16974;DHT22;8603;46.944;7.412;2023-05-07T10:48:14;27.10;92.50
16974;DHT22;8603;46.944;7.412;2023-05-07T10:50:41;27.20;93.10
16974;DHT22;8603;46.944;7.412;2023-05-07T10:55:52;27.70;93.80
16974;DHT22;8603;46.944;7.412;2023-05-07T10:58:28;27.80;92.70
16974;DHT22;8603;46.944;7.412;2023-05-07T11:00:57;27.30;92.50
16974;DHT22;8603;46.944;7.412;2023-05-07T11:03:23;27.20;93.60
16974;DHT22;8603;46.944;7.412;2023-05-07T11:06:12;27.20;94.30
16974;DHT22;8603;46.944;7.412;2023-05-07T11:08:54;27.40;93.20
16974;DHT22;8603;46.944;7.412;2023-05-07T11:11:43;27.60;94.20
16974;DHT22;8603;46.944;7.412;2023-05-07T11:14:09;27.60;92.90
16974;DHT22;8603;46.944;7.412;2023-05-07T11:16:35;27.60;92.70
16974;DHT22;8603;46.944;7.412;2023-05-07T11:19:04;27.40;92.10
16974;DHT22;8603;46.944;7.412;2023-05-07T11:24:02;26.90;92.60
16974;DHT22;8603;46.944;7.412;2023-05-07T11:26:30;26.80;92.20
16974;DHT22;8603;46.944;7.412;2023-05-07T11:28:57;26.30;93.30
16974;DHT22;8603;46.944;7.412;2023-05-07T11:31:26;26.10;93.40
16974;DHT22;8603;46.944;7.412;2023-05-07T11:33:55;26.00;92.60
16974;DHT22;8603;46.944;7.412;2023-05-07T11:36:22;26.20;91.80
16974;DHT22;8603;46.944;7.412;2023-05-07T11:38:48;26.30;91.80
16974;DHT22;8603;46.944;7.412;2023-05-07T11:41:16;26.40;91.60
16974;DHT22;8603;46.944;7.412;2023-05-07T11:44:03;26.20;92.70
16974;DHT22;8603;46.944;7.412;2023-05-07T11:46:29;26.30;93.00
16974;DHT22;8603;46.944;7.412;2023-05-07T11:48:58;26.30;92.10
16974;DHT22;8603;46.944;7.412;2023-05-07T11:51:24;26.40;92.30
16974;DHT22;8603;46.944;7.412;2023-05-07T11:53:51;26.10;91.90
16974;DHT22;8603;46.944;7.412;2023-05-07T11:56:18;26.00;92.30
16974;DHT22;8603;46.944;7.412;2023-05-07T11:58:45;25.90;92.50
16974;DHT22;8603;46.944;7.412;2023-05-07T12:01:12;25.80;93.30
16974;DHT22;8603;46.944;7.412;2023-05-07T12:03:40;25.90;93.30
16974;DHT22;8603;46.944;7.412;2023-05-07T12:06:08;25.90;93.50
16974;DHT22;8603;46.944;7.412;2023-05-07T12:08:37;26.00;93.70
16974;DHT22;8603;46.944;7.412;2023-05-07T12:11:03;26.10;94.00
16974;DHT22;8603;46.944;7.412;2023-05-07T12:13:32;26.10;93.70
16974;DHT22;8603;46.944;7.412;2023-05-07T12:15:58;26.00;93.80
16974;DHT22;8603;46.944;7.412;2023-05-07T12:18:24;26.00;93.30
16974;DHT22;8603;46.944;7.412;2023-05-07T12:20:50;25.90;93.90
16974;DHT22;8603;46.944;7.412;2023-05-07T12:23:17;25.60;94.20
16974;DHT22;8603;46.944;7.412;2023-05-07T12:25:43;25.30;94.70
16974;DHT22;8603;46.944;7.412;2023-05-07T12:28:19;24.90;95.00
16974;DHT22;8603;46.944;7.412;2023-05-07T12:30:47;24.60;94.60
16974;DHT22;8603;46.944;7.412;2023-05-07T12:33:17;24.30;95.20
16974;DHT22;8603;46.944;7.412;2023-05-07T12:35:43;23.90;95.50
16974;DHT22;8603;46.944;7.412;2023-05-07T12:38:14;23.60;95.90
16974;DHT22;8603;46.944;7.412;2023-05-07T12:40:41;23.60;96.40
16974;DHT22;8603;46.944;7.412;2023-05-07T12:43:27;23.60;96.40
16974;DHT22;8603;46.944;7.412;2023-05-07T12:45:57;23.40;96.50
16974;DHT22;8603;46.944;7.412;2023-05-07T12:48:23;23.20;96.80
16974;DHT22;8603;46.944;7.412;2023-05-07T12:50:54;22.90;97.00
16974;DHT22;8603;46.944;7.412;2023-05-07T12:53:21;22.70;97.30
16974;DHT22;8603;46.944;7.412;2023-05-07T12:55:49;22.50;97.70
16974;DHT22;8603;46.944;7.412;2023-05-07T12:58:20;22.40;98.20
16974;DHT22;8603;46.944;7.412;2023-05-07T13:00:48;22.20;98.60
16974;DHT22;8603;46.944;7.412;2023-05-07T13:03:34;22.00;98.90
16974;DHT22;8603;46.944;7.412;2023-05-07T13:06:02;21.90;98.90
16974;DHT22;8603;46.944;7.412;2023-05-07T13:10:59;21.70;99.70
16974;DHT22;8603;46.944;7.412;2023-05-07T13:13:29;21.60;99.90
16974;DHT22;8603;46.944;7.412;2023-05-07T13:15:54;21.40;99.90
16974;DHT22;8603;46.944;7.412;2023-05-07T13:18:20;21.30;99.90
16974;DHT22;8603;46.944;7.412;2023-05-07T13:20:46;21.10;99.90
16974;DHT22;8603;46.944;7.412;2023-05-07T13:23:11;21.00;99.90
16974;DHT22;8603;46.944;7.412;2023-05-07T13:25:37;20.80;99.90
16974;DHT22;8603;46.944;7.412;2023-05-07T13:28:02;20.60;99.90
16974;DHT22;8603;46.944;7.412;2023-05-07T13:30:29;20.30;99.90
16974;DHT22;8603;46.944;7.412;2023-05-07T13:32:56;20.10;99.90
16974;DHT22;8603;46.944;7.412;2023-05-07T13:35:22;19.90;99.90
16974;DHT22;8603;46.944;7.412;2023-05-07T13:37:48;19.80;99.90
16974;DHT22;8603;46.944;7.412;2023-05-07T13:40:15;19.60;99.90
16974;DHT22;8603;46.944;7.412;2023-05-07T13:42:40;19.40;99.90
16974;DHT22;8603;46.944;7.412;2023-05-07T13:45:07;19.20;99.90
16974;DHT22;8603;46.944;7.412;2023-05-07T13:47:34;19.10;99.90
16974;DHT22;8603;46.944;7.412;2023-05-07T13:50:00;18.80;99.90
16974;DHT22;8603;46.944;7.412;2023-05-07T13:52:34;18.60;99.90
16974;DHT22;8603;46.944;7.412;2023-05-07T13:55:00;18.40;99.90
16974;DHT22;8603;46.944;7.412;2023-05-07T13:57:26;18.20;99.90
16974;DHT22;8603;46.944;7.412;2023-05-07T13:59:57;17.90;99.90
16974;DHT22;8603;46.944;7.412;2023-05-07T14:02:24;17.60;99.90
16974;DHT22;8603;46.944;7.412;2023-05-07T14:04:53;17.30;99.90
16974;DHT22;8603;46.944;7.412;2023-05-07T14:07:18;17.00;99.90
16974;DHT22;8603;46.944;7.412;2023-05-07T14:09:44;16.70;99.90
16974;DHT22;8603;46.944;7.412;2023-05-07T14:12:10;16.60;99.90
16974;DHT22;8603;46.944;7.412;2023-05-07T14:14:36;16.30;99.90
16974;DHT22;8603;46.944;7.412;2023-05-07T14:17:02;16.10;99.90
16974;DHT22;8603;46.944;7.412;2023-05-07T14:19:34;16.00;99.90
16974;DHT22;8603;46.944;7.412;2023-05-07T14:22:02;15.90;99.90
16974;DHT22;8603;46.944;7.412;2023-05-07T14:24:28;15.70;99.90
16974;DHT22;8603;46.944;7.412;2023-05-07T14:26:53;15.70;99.90
16974;DHT22;8603;46.944;7.412;2023-05-07T14:29:19;15.50;99.90
16974;DHT22;8603;46.944;7.412;2023-05-07T14:31:45;15.60;99.90
16974;DHT22;8603;46.944;7.412;2023-05-07T14:34:13;15.50;99.90
16974;DHT22;8603;46.944;7.412;2023-05-07T14:36:39;15.40;99.90
16974;DHT22;8603;46.944;7.412;2023-05-07T14:39:05;15.40;99.90
16974;DHT22;8603;46.944;7.412;2023-05-07T14:41:31;15.30;99.90
16974;DHT22;8603;46.944;7.412;2023-05-07T14:43:58;15.30;99.90
16974;DHT22;8603;46.944;7.412;2023-05-07T14:46:24;15.20;99.90
16974;DHT22;8603;46.944;7.412;2023-05-07T14:48:50;15.20;99.90
16974;DHT22;8603;46.944;7.412;2023-05-07T14:51:16;15.20;99.90
16974;DHT22;8603;46.944;7.412;2023-05-07T14:53:42;15.20;99.90
16974;DHT22;8603;46.944;7.412;2023-05-07T14:56:08;15.10;99.90
16974;DHT22;8603;46.944;7.412;2023-05-07T14:58:34;15.20;99.90
16974;DHT22;8603;46.944;7.412;2023-05-07T15:01:00;15.10;99.90
16974;DHT22;8603;46.944;7.412;2023-05-07T15:03:29;15.10;99.90
16974;DHT22;8603;46.944;7.412;2023-05-07T15:05:58;15.10;99.90
16974;DHT22;8603;46.944;7.412;2023-05-07T15:08:24;15.10;99.90
16974;DHT22;8603;46.944;7.412;2023-05-07T15:10:49;15.10;99.90
16974;DHT22;8603;46.944;7.412;2023-05-07T15:13:18;15.10;99.90
16974;DHT22;8603;46.944;7.412;2023-05-07T15:15:44;15.10;99.90
16974;DHT22;8603;46.944;7.412;2023-05-07T15:18:10;15.10;99.90
16974;DHT22;8603;46.944;7.412;2023-05-07T15:20:36;15.20;99.90
16974;DHT22;8603;46.944;7.412;2023-05-07T15:23:02;15.30;99.90
16974;DHT22;8603;46.944;7.412;2023-05-07T15:25:31;15.30;99.90
16974;DHT22;8603;46.944;7.412;2023-05-07T15:28:02;15.40;99.90
16974;DHT22;8603;46.944;7.412;2023-05-07T15:30:27;15.50;99.90
16974;DHT22;8603;46.944;7.412;2023-05-07T15:32:53;15.60;99.90
16974;DHT22;8603;46.944;7.412;2023-05-07T15:35:21;15.60;99.90
16974;DHT22;8603;46.944;7.412;2023-05-07T15:37:58;15.70;99.90
16974;DHT22;8603;46.944;7.412;2023-05-07T15:40:28;15.80;99.90
16974;DHT22;8603;46.944;7.412;2023-05-07T15:42:55;15.70;99.90
16974;DHT22;8603;46.944;7.412;2023-05-07T15:45:21;15.70;99.90
16974;DHT22;8603;46.944;7.412;2023-05-07T15:47:47;15.70;99.90
16974;DHT22;8603;46.944;7.412;2023-05-07T15:50:13;15.70;99.90
16974;DHT22;8603;46.944;7.412;2023-05-07T15:52:41;15.70;99.90
16974;DHT22;8603;46.944;7.412;2023-05-07T15:55:08;15.70;99.90
16974;DHT22;8603;46.944;7.412;2023-05-07T15:57:34;15.80;99.90